createdAt,value
2023-04-14T00:01:17.405Z,6.28
2023-04-14T00:03:46.084Z,6.22
2023-04-14T00:06:14.450Z,6.10
2023-04-14T00:08:42.641Z,6.17
2023-04-14T00:11:12.498Z,6.21
2023-04-14T00:13:40.815Z,6.08
2023-04-14T00:16:09.340Z,6.07
2023-04-14T00:18:40.841Z,5.81
2023-04-14T00:21:09.159Z,5.89
2023-04-14T00:23:37.385Z,5.85
2023-04-14T00:26:06.519Z,5.75
2023-04-14T00:28:36.203Z,5.70
2023-04-14T00:31:04.467Z,5.67
2023-04-14T00:33:33.399Z,5.62
2023-04-14T00:36:03.121Z,5.68
2023-04-14T00:38:31.504Z,5.65
2023-04-14T00:40:59.775Z,5.71
2023-04-14T00:43:28.027Z,5.69
2023-04-14T00:45:57.847Z,5.82
2023-04-14T00:48:26.109Z,5.77
2023-04-14T00:50:54.468Z,5.60
2023-04-14T00:53:22.726Z,5.64
2023-04-14T00:55:51.948Z,5.63
2023-04-14T00:58:20.328Z,5.61
2023-04-14T01:00:53.951Z,5.62
2023-04-14T01:03:24.682Z,5.68
2023-04-14T01:05:53.293Z,5.67
2023-04-14T01:08:22.698Z,5.76
2023-04-14T01:11:02.590Z,5.67
2023-04-14T01:13:38.347Z,5.74
2023-04-14T01:16:15.744Z,5.70
2023-04-14T01:18:53.139Z,5.77
2023-04-14T01:21:27.733Z,5.67
2023-04-14T01:24:26.217Z,5.55
2023-04-14T01:27:07.067Z,5.60
2023-04-14T01:29:54.033Z,5.67
2023-04-14T01:32:28.419Z,5.49
2023-04-14T01:35:01.004Z,5.51
2023-04-14T01:37:31.650Z,5.48
2023-04-14T01:40:05.780Z,5.46
2023-04-14T01:42:37.814Z,5.38
2023-04-14T01:45:11.739Z,5.40
2023-04-14T01:47:44.170Z,5.38
2023-04-14T01:50:14.101Z,5.35
2023-04-14T01:52:47.644Z,5.42
2023-04-14T01:55:18.392Z,5.33
2023-04-14T01:57:48.379Z,5.33
2023-04-14T02:00:19.178Z,5.37
2023-04-14T02:02:52.386Z,5.31
2023-04-14T02:05:22.275Z,5.30
2023-04-14T02:07:53.216Z,5.26
2023-04-14T02:10:24.618Z,5.24
2023-04-14T02:12:56.397Z,5.27
2023-04-14T02:15:28.574Z,5.23
2023-04-14T02:17:58.991Z,5.11
2023-04-14T02:20:29.591Z,5.01
2023-04-14T02:22:58.123Z,4.92
2023-04-14T02:25:33.300Z,4.90
2023-04-14T02:28:06.585Z,4.98
2023-04-14T02:30:39.402Z,4.88
2023-04-14T02:33:11.351Z,4.84
2023-04-14T02:35:43.897Z,4.72
2023-04-14T02:38:19.619Z,4.79
2023-04-14T02:40:48.577Z,4.83
2023-04-14T02:43:21.515Z,4.73
2023-04-14T02:45:52.680Z,4.67
2023-04-14T02:48:25.956Z,4.83
2023-04-14T02:50:56.791Z,4.74
2023-04-14T02:53:28.780Z,4.77
2023-04-14T02:56:20.857Z,4.74
2023-04-14T02:58:51.596Z,4.67
2023-04-14T03:01:22.681Z,4.71
2023-04-14T03:03:54.656Z,4.51
2023-04-14T03:06:26.228Z,4.58
2023-04-14T03:08:58.318Z,4.59
2023-04-14T03:11:28.857Z,4.54
2023-04-14T03:13:58.649Z,4.61
2023-04-14T03:16:29.051Z,4.69
2023-04-14T03:19:00.649Z,4.71
2023-04-14T03:21:30.446Z,4.64
2023-04-14T03:24:00.965Z,4.62
2023-04-14T03:26:33.314Z,4.54
2023-04-14T03:29:06.611Z,4.63
2023-04-14T03:31:38.075Z,4.57
2023-04-14T03:34:10.107Z,4.61
2023-04-14T03:36:44.738Z,4.51
2023-04-14T03:39:14.883Z,4.41
2023-04-14T03:41:49.363Z,4.41
2023-04-14T03:44:19.997Z,4.46
2023-04-14T03:46:51.512Z,4.56
2023-04-14T03:49:24.164Z,4.56
2023-04-14T03:51:55.879Z,4.48
2023-04-14T03:54:27.913Z,4.45
2023-04-14T03:56:57.482Z,4.54
2023-04-14T03:59:28.869Z,4.57
2023-04-14T04:01:58.681Z,4.57
2023-04-14T04:04:28.819Z,4.56
2023-04-14T04:07:00.167Z,4.41
2023-04-14T04:09:29.877Z,4.45
2023-04-14T04:11:59.953Z,4.47
2023-04-14T04:14:31.102Z,4.49
2023-04-14T04:17:03.286Z,4.39
2023-04-14T04:19:35.632Z,4.39
2023-04-14T04:22:05.142Z,4.39
2023-04-14T04:24:38.581Z,4.42
2023-04-14T04:27:24.444Z,4.49
2023-04-14T04:29:56.416Z,4.50
2023-04-14T04:32:25.175Z,4.31
2023-04-14T04:34:56.750Z,4.43
2023-04-14T04:37:28.718Z,4.41
2023-04-14T04:39:59.026Z,4.48
2023-04-14T04:42:28.608Z,4.32
2023-04-14T04:44:57.685Z,4.32
2023-04-14T04:47:26.514Z,4.46
2023-04-14T04:49:56.127Z,4.38
2023-04-14T04:52:26.904Z,4.34
2023-04-14T04:54:55.507Z,4.39
2023-04-14T04:57:23.715Z,4.42
2023-04-14T04:59:51.924Z,4.35
2023-04-14T05:02:20.303Z,4.36
2023-04-14T05:04:48.921Z,4.39
2023-04-14T05:07:19.701Z,4.47
2023-04-14T05:09:48.007Z,4.49
2023-04-14T05:12:16.371Z,4.57
2023-04-14T05:14:44.607Z,4.56
2023-04-14T05:17:12.954Z,4.74
2023-04-14T05:19:41.914Z,4.77
2023-04-14T05:22:10.136Z,4.83
2023-04-14T05:24:40.171Z,4.98
2023-04-14T05:27:14.264Z,5.05
2023-04-14T05:29:43.138Z,5.01
2023-04-14T05:32:12.920Z,5.09
2023-04-14T05:34:41.265Z,5.22
2023-04-14T05:37:11.344Z,5.31
2023-04-14T05:39:40.993Z,5.22
2023-04-14T05:42:09.275Z,5.25
2023-04-14T05:44:37.544Z,5.36
2023-04-14T05:47:05.956Z,5.33
2023-04-14T05:49:34.301Z,5.39
2023-04-14T05:52:02.854Z,5.33
2023-04-14T05:54:31.070Z,5.53
2023-04-14T05:57:00.970Z,5.56
2023-04-14T05:59:29.298Z,5.70
2023-04-14T06:01:58.057Z,5.81
2023-04-14T06:04:26.412Z,5.85
2023-04-14T06:06:54.782Z,5.81
2023-04-14T06:09:23.022Z,5.79
2023-04-14T06:11:51.231Z,5.79
2023-04-14T06:14:20.968Z,5.86
2023-04-14T06:16:51.089Z,5.87
2023-04-14T06:19:19.537Z,5.91
2023-04-14T06:21:47.993Z,5.80
2023-04-14T06:24:16.352Z,5.83
2023-04-14T06:26:44.598Z,5.80
2023-04-14T06:29:12.836Z,5.72
2023-04-14T06:31:42.771Z,5.71
2023-04-14T06:34:11.174Z,5.66
2023-04-14T06:36:39.365Z,5.77
2023-04-14T06:39:07.596Z,5.77
2023-04-14T06:41:35.880Z,5.78
2023-04-14T06:44:05.912Z,5.80
2023-04-14T06:46:36.015Z,5.99
2023-04-14T06:49:06.045Z,6.13
2023-04-14T06:51:34.673Z,6.21
2023-04-14T06:54:03.192Z,6.28
2023-04-14T06:56:31.757Z,6.49
2023-04-14T06:59:00.015Z,6.49
2023-04-14T07:01:28.316Z,6.64
2023-04-14T07:03:56.988Z,6.64
2023-04-14T07:06:26.734Z,6.95
2023-04-14T07:08:56.322Z,7.01
2023-04-14T07:11:24.575Z,7.28
2023-04-14T07:13:52.820Z,7.34
2023-04-14T07:16:21.107Z,7.60
2023-04-14T07:18:49.370Z,7.89
2023-04-14T07:21:17.638Z,8.15
2023-04-14T07:23:47.556Z,8.04
2023-04-14T07:26:15.943Z,8.39
2023-04-14T07:28:44.409Z,8.50
2023-04-14T07:31:13.819Z,8.76
2023-04-14T07:33:42.131Z,8.80
2023-04-14T07:36:10.927Z,8.95
2023-04-14T07:38:39.246Z,8.51
2023-04-14T07:41:08.915Z,8.68
2023-04-14T07:43:37.252Z,8.72
2023-04-14T07:46:06.738Z,8.86
2023-04-14T07:48:36.187Z,8.87
2023-04-14T07:51:05.413Z,8.86
2023-04-14T07:53:34.046Z,9.00
2023-04-14T07:56:02.376Z,9.24
2023-04-14T07:58:32.056Z,9.08
2023-04-14T08:01:00.497Z,9.46
2023-04-14T08:03:28.861Z,9.59
2023-04-14T08:05:57.618Z,9.47
2023-04-14T08:08:26.330Z,9.55
2023-04-14T08:10:54.548Z,9.55
2023-04-14T08:13:22.919Z,9.98
2023-04-14T08:15:52.593Z,10.13
2023-04-14T08:18:22.190Z,10.11
2023-04-14T08:20:50.470Z,10.00
2023-04-14T08:23:18.710Z,10.50
2023-04-14T08:25:48.059Z,10.22
2023-04-14T08:28:16.321Z,10.29
2023-04-14T08:30:44.599Z,10.71
2023-04-14T08:33:14.237Z,10.58
2023-04-14T08:35:43.774Z,10.83
2023-04-14T08:38:12.379Z,11.20
2023-04-14T08:40:42.194Z,10.96
2023-04-14T08:43:13.166Z,10.85
2023-04-14T08:45:44.728Z,10.90
2023-04-14T08:48:17.484Z,10.85
2023-04-14T08:50:53.817Z,11.32
2023-04-14T08:53:24.713Z,11.57
2023-04-14T08:55:54.862Z,11.37
2023-04-14T08:58:24.635Z,11.38
2023-04-14T09:00:55.264Z,11.72
2023-04-14T09:03:26.352Z,11.57
2023-04-14T09:05:55.024Z,11.72
2023-04-14T09:08:23.545Z,11.70
2023-04-14T09:10:52.283Z,11.94
2023-04-14T09:13:23.081Z,11.85
2023-04-14T09:15:52.166Z,12.43
2023-04-14T09:18:20.438Z,12.57
2023-04-14T09:21:51.007Z,12.41
2023-04-14T09:23:41.770Z,12.11
2023-04-14T09:26:11.612Z,12.02
2023-04-14T09:28:40.385Z,11.96
2023-04-14T09:31:09.336Z,11.87
2023-04-14T09:33:40.604Z,12.26
2023-04-14T09:36:19.456Z,12.43
2023-04-14T09:38:48.340Z,12.60
2023-04-14T09:41:18.327Z,12.72
2023-04-14T09:43:47.148Z,12.84
2023-04-14T09:46:16.615Z,12.81
2023-04-14T09:48:52.638Z,13.23
2023-04-14T09:51:25.095Z,12.94
2023-04-14T09:53:54.536Z,12.41
2023-04-14T09:56:27.935Z,12.47
2023-04-14T09:59:00.243Z,12.79
2023-04-14T10:01:32.115Z,12.89
2023-04-14T10:04:01.447Z,13.02
2023-04-14T10:06:31.664Z,12.57
2023-04-14T10:09:00.507Z,13.21
2023-04-14T10:11:30.484Z,13.09
2023-04-14T10:14:00.366Z,13.21
2023-04-14T10:16:28.946Z,12.82
2023-04-14T10:18:58.487Z,12.41
2023-04-14T10:21:27.926Z,13.46
2023-04-14T10:23:58.470Z,13.97
2023-04-14T10:26:27.971Z,14.53
2023-04-14T10:28:57.316Z,13.92
2023-04-14T10:31:29.884Z,14.41
2023-04-14T10:33:58.367Z,13.81
2023-04-14T10:36:28.059Z,13.01
2023-04-14T10:39:03.109Z,13.63
2023-04-14T10:41:47.251Z,13.63
2023-04-14T10:44:31.484Z,14.60
2023-04-14T10:47:02.257Z,14.93
2023-04-14T10:49:33.130Z,14.57
2023-04-14T10:52:03.352Z,14.54
2023-04-14T10:54:52.748Z,14.82
2023-04-14T10:57:23.661Z,13.86
2023-04-14T10:59:57.187Z,13.98
2023-04-14T11:02:31.163Z,13.45
2023-04-14T11:05:05.118Z,13.40
2023-04-14T11:07:39.107Z,13.38
2023-04-14T11:10:28.242Z,13.61
2023-04-14T11:12:57.981Z,13.37
2023-04-14T11:15:44.967Z,14.10
2023-04-14T11:18:15.096Z,14.93
2023-04-14T11:20:43.762Z,15.57
2023-04-14T11:23:14.402Z,14.88
2023-04-14T11:25:45.558Z,13.65
2023-04-14T11:28:14.388Z,13.82
2023-04-14T11:30:44.204Z,14.59
2023-04-14T11:33:12.808Z,14.39
2023-04-14T11:35:43.428Z,14.53
2023-04-14T11:38:12.408Z,14.27
2023-04-14T11:40:40.719Z,15.23
2023-04-14T11:43:10.441Z,14.55
2023-04-14T11:45:43.711Z,15.10
2023-04-14T11:48:13.272Z,16.24
2023-04-14T11:50:42.759Z,15.41
2023-04-14T11:53:12.197Z,16.25
2023-04-14T11:55:43.768Z,16.60
2023-04-14T11:58:13.932Z,14.37
2023-04-14T12:00:42.943Z,15.77
2023-04-14T12:03:11.688Z,16.74
2023-04-14T12:05:41.509Z,16.18
2023-04-14T12:08:12.590Z,14.47
2023-04-14T12:10:42.255Z,14.72
2023-04-14T12:13:11.852Z,15.91
2023-04-14T12:15:43.326Z,16.32
2023-04-14T12:18:13.788Z,16.32
2023-04-14T12:20:43.491Z,15.93
2023-04-14T12:23:11.847Z,15.07
2023-04-14T12:25:40.681Z,14.33
2023-04-14T12:28:09.025Z,15.13
2023-04-14T12:30:38.630Z,15.81
2023-04-14T12:33:14.395Z,16.85
2023-04-14T12:35:42.621Z,17.44
2023-04-14T12:38:12.643Z,16.78
2023-04-14T12:40:42.637Z,15.53
2023-04-14T12:43:11.098Z,15.42
2023-04-14T12:45:43.772Z,14.57
2023-04-14T12:48:15.971Z,15.76
2023-04-14T12:50:44.627Z,15.07
2023-04-14T12:53:26.462Z,14.71
2023-04-14T12:56:08.861Z,14.55
2023-04-14T12:58:37.882Z,15.61
2023-04-14T13:01:07.852Z,16.87
2023-04-14T13:03:42.456Z,16.82
2023-04-14T13:06:12.302Z,15.97
2023-04-14T13:08:45.916Z,16.89
2023-04-14T13:11:14.656Z,15.86
2023-04-14T13:13:44.388Z,15.67
2023-04-14T13:16:16.231Z,15.39
2023-04-14T13:18:48.119Z,15.96
2023-04-14T13:21:16.982Z,16.54
2023-04-14T13:23:45.371Z,16.73
2023-04-14T13:26:13.823Z,15.47
2023-04-14T13:28:42.164Z,15.27
2023-04-14T13:31:11.672Z,15.13
2023-04-14T13:33:39.914Z,15.55
2023-04-14T13:36:09.899Z,15.69
2023-04-14T13:38:38.199Z,14.70
2023-04-14T13:41:07.162Z,15.26
2023-04-14T13:43:36.177Z,15.01
2023-04-14T13:46:04.558Z,14.67
2023-04-14T13:48:32.866Z,14.49
2023-04-14T13:51:02.276Z,13.95
2023-04-14T13:53:32.445Z,13.95
2023-04-14T13:56:00.833Z,13.92
2023-04-14T13:58:29.097Z,13.95
2023-04-14T14:00:57.347Z,13.66
2023-04-14T14:03:27.874Z,14.14
2023-04-14T14:05:57.411Z,15.37
2023-04-14T14:08:26.098Z,15.11
2023-04-14T14:10:55.693Z,15.59
2023-04-14T14:13:24.059Z,15.95
2023-04-14T14:15:52.954Z,15.81
2023-04-14T14:18:21.745Z,16.49
2023-04-14T14:20:50.600Z,17.23
2023-04-14T14:23:18.853Z,17.65
2023-04-14T14:25:47.349Z,17.51
2023-04-14T14:28:17.308Z,17.34
2023-04-14T14:30:46.112Z,17.41
2023-04-14T14:33:14.941Z,17.34
2023-04-14T14:35:43.220Z,18.05
2023-04-14T14:38:11.504Z,19.23
2023-04-14T14:40:40.130Z,19.84
2023-04-14T14:43:08.692Z,18.27
2023-04-14T14:45:38.352Z,17.85
2023-04-14T14:48:11.846Z,17.68
2023-04-14T14:50:40.198Z,16.87
2023-04-14T14:53:08.408Z,16.17
2023-04-14T14:55:36.601Z,15.62
2023-04-14T14:58:06.382Z,14.99
2023-04-14T15:00:34.656Z,14.81
2023-04-14T15:03:04.606Z,13.98
2023-04-14T15:05:32.964Z,13.37
2023-04-14T15:08:01.235Z,12.99
2023-04-14T15:10:29.527Z,12.72
2023-04-14T15:12:57.773Z,12.95
2023-04-14T15:15:26.100Z,12.93
2023-04-14T15:17:54.439Z,12.64
2023-04-14T15:20:24.111Z,12.26
2023-04-14T15:22:52.437Z,12.19
2023-04-14T15:25:21.110Z,12.10
2023-04-14T15:27:49.384Z,12.15
2023-04-14T15:30:17.741Z,12.27
2023-04-14T15:32:46.001Z,12.34
2023-04-14T15:35:14.441Z,12.48
2023-04-14T15:37:44.093Z,12.38
2023-04-14T15:40:12.630Z,12.53
2023-04-14T15:42:41.538Z,12.44
2023-04-14T15:45:10.736Z,12.43
2023-04-14T15:47:39.320Z,12.47
2023-04-14T15:50:10.222Z,12.57
2023-04-14T15:52:41.424Z,12.60
2023-04-14T15:55:11.749Z,12.52
2023-04-14T15:57:39.998Z,12.56
2023-04-14T16:00:09.403Z,12.67
2023-04-14T16:02:45.858Z,13.08
2023-04-14T16:05:14.560Z,13.40
2023-04-14T16:07:43.882Z,13.96
2023-04-14T16:10:13.805Z,14.50
2023-04-14T16:12:42.001Z,14.55
2023-04-14T16:15:11.067Z,14.60
2023-04-14T16:17:39.335Z,15.26
2023-04-14T16:20:08.196Z,15.53
2023-04-14T16:22:37.102Z,16.00
2023-04-14T16:25:06.853Z,15.60
2023-04-14T16:27:36.477Z,15.83
2023-04-14T16:30:05.542Z,15.74
2023-04-14T16:32:33.854Z,15.46
2023-04-14T16:35:02.426Z,15.45
2023-04-14T16:37:30.830Z,16.27
2023-04-14T16:39:59.101Z,16.82
2023-04-14T16:42:27.561Z,16.80
2023-04-14T16:44:57.390Z,17.40
2023-04-14T16:47:25.686Z,17.05
2023-04-14T16:49:54.126Z,18.25
2023-04-14T16:52:22.453Z,17.55
2023-04-14T16:54:50.676Z,18.47
2023-04-14T16:57:18.919Z,17.66
2023-04-14T16:59:48.148Z,16.78
2023-04-14T17:02:17.983Z,16.51
2023-04-14T17:04:46.678Z,15.53
2023-04-14T17:07:15.046Z,14.72
2023-04-14T17:09:43.332Z,14.21
2023-04-14T17:12:11.629Z,14.24
2023-04-14T17:14:39.831Z,14.11
2023-04-14T17:17:08.246Z,13.96
2023-04-14T17:19:37.917Z,13.89
2023-04-14T17:22:06.739Z,13.58
2023-04-14T17:24:34.955Z,13.37
2023-04-14T17:27:03.828Z,13.19
2023-04-14T17:29:33.178Z,13.24
2023-04-14T17:32:02.650Z,13.14
2023-04-14T17:34:31.493Z,13.20
2023-04-14T17:37:01.341Z,13.16
2023-04-14T17:39:29.730Z,13.16
2023-04-14T17:41:58.960Z,13.08
2023-04-14T17:44:32.967Z,13.00
2023-04-14T17:47:03.007Z,13.00
2023-04-14T17:49:31.542Z,12.99
2023-04-14T17:52:01.343Z,13.07
2023-04-14T17:54:30.559Z,12.97
2023-04-14T17:56:58.790Z,12.82
2023-04-14T17:59:27.246Z,12.78
2023-04-14T18:01:55.730Z,12.84
2023-04-14T18:04:24.206Z,12.71
2023-04-14T18:06:52.770Z,12.67
2023-04-14T18:09:22.716Z,12.60
2023-04-14T18:11:51.045Z,12.48
2023-04-14T18:14:19.701Z,12.45
2023-04-14T18:16:47.956Z,12.41
2023-04-14T18:19:16.250Z,12.34
2023-04-14T18:21:45.189Z,12.34
2023-04-14T18:26:46.551Z,12.35
2023-04-14T18:29:14.931Z,12.29
2023-04-14T18:31:43.671Z,12.27
2023-04-14T18:34:13.567Z,12.22
2023-04-14T18:36:41.848Z,12.16
2023-04-14T18:39:10.275Z,12.23
2023-04-14T18:41:38.689Z,12.23
2023-04-14T18:44:08.414Z,12.22
2023-04-14T18:46:37.853Z,12.11
2023-04-14T18:49:06.302Z,12.11
2023-04-14T18:51:34.513Z,12.06
2023-04-14T18:54:03.247Z,12.04
2023-04-14T18:56:31.685Z,12.02
2023-04-14T18:59:00.740Z,11.97
2023-04-14T19:01:30.549Z,12.03
2023-04-14T19:03:59.272Z,12.00
2023-04-14T19:06:27.729Z,12.00
2023-04-14T19:08:56.706Z,11.90
2023-04-14T19:11:25.259Z,11.90
2023-04-14T19:13:54.108Z,11.77
2023-04-14T19:16:22.739Z,11.79
2023-04-14T19:18:52.404Z,11.76
2023-04-14T19:21:20.745Z,11.77
2023-04-14T19:23:50.984Z,11.79
2023-04-14T19:26:19.447Z,11.68
2023-04-14T19:28:47.822Z,11.67
2023-04-14T19:31:17.495Z,11.63
2023-04-14T19:33:46.121Z,11.64
2023-04-14T19:36:16.451Z,11.63
2023-04-14T19:38:44.858Z,11.53
2023-04-14T19:41:13.733Z,11.49
2023-04-14T19:43:42.070Z,11.48
2023-04-14T19:46:13.103Z,11.53
2023-04-14T19:48:41.476Z,11.44
2023-04-14T19:51:10.136Z,11.43
2023-04-14T19:53:39.850Z,11.39
2023-04-14T19:56:08.808Z,11.39
2023-04-14T19:58:37.082Z,11.34
2023-04-14T20:01:05.795Z,11.32
2023-04-14T20:03:34.829Z,11.26
2023-04-14T20:06:03.344Z,11.22
2023-04-14T20:08:32.249Z,11.18
2023-04-14T20:11:01.901Z,11.16
2023-04-14T20:13:32.151Z,11.23
2023-04-14T20:16:01.525Z,11.25
2023-04-14T20:18:30.007Z,11.19
2023-04-14T20:20:58.973Z,11.24
2023-04-14T20:23:27.909Z,11.29
2023-04-14T20:25:56.830Z,11.30
2023-04-14T20:28:26.755Z,11.24
2023-04-14T20:30:56.028Z,11.19
2023-04-14T20:33:24.874Z,11.15
2023-04-14T20:35:54.109Z,11.20
2023-04-14T20:38:23.640Z,11.18
2023-04-14T20:40:51.971Z,11.10
2023-04-14T20:43:20.334Z,11.10
2023-04-14T20:45:52.655Z,11.05
2023-04-14T20:48:21.538Z,10.99
2023-04-14T20:50:50.493Z,10.97
2023-04-14T20:53:21.984Z,10.97
2023-04-14T20:55:51.038Z,10.90
2023-04-14T20:58:19.425Z,10.88
2023-04-14T21:00:49.200Z,10.85
2023-04-14T21:03:17.568Z,10.77
2023-04-14T21:05:46.296Z,10.75
2023-04-14T21:08:14.552Z,10.74
2023-04-14T21:11:15.994Z,10.73
2023-04-14T21:15:42.243Z,10.69
2023-04-14T21:16:20.886Z,10.67
2023-04-14T21:18:49.266Z,10.71
2023-04-14T21:21:17.942Z,10.79
2023-04-14T21:23:46.340Z,10.65
2023-04-14T21:26:14.622Z,10.70
2023-04-14T21:28:43.035Z,10.63
2023-04-14T21:31:11.528Z,10.64
2023-04-14T21:33:41.836Z,10.70
2023-04-14T21:36:10.774Z,10.65
2023-04-14T21:38:39.590Z,10.63
2023-04-14T21:41:09.479Z,10.65
2023-04-14T21:43:38.726Z,10.71
2023-04-14T21:46:07.254Z,10.81
2023-04-14T21:48:35.746Z,10.83
2023-04-14T21:51:05.528Z,10.78
2023-04-14T21:53:33.937Z,10.70
2023-04-14T21:56:09.839Z,10.70
2023-04-14T21:58:39.401Z,10.71
2023-04-14T22:01:09.616Z,10.67
2023-04-14T22:03:40.607Z,10.74
2023-04-14T22:06:11.393Z,10.68
2023-04-14T22:08:40.552Z,10.67
2023-04-14T22:11:08.862Z,10.65
2023-04-14T22:13:37.144Z,10.70
2023-04-14T22:16:05.703Z,10.67
2023-04-14T22:18:34.237Z,10.67
2023-04-14T22:21:03.154Z,10.67
2023-04-14T22:23:33.048Z,10.68
2023-04-14T22:26:01.338Z,10.72
2023-04-14T22:28:29.579Z,10.65
2023-04-14T22:30:57.910Z,10.56
2023-04-14T22:33:26.688Z,10.58
2023-04-14T22:35:54.928Z,10.56
2023-04-14T22:38:23.137Z,10.40
2023-04-14T22:40:52.984Z,10.36
2023-04-14T22:43:21.445Z,10.36
2023-04-14T22:45:49.832Z,10.28
2023-04-14T22:48:18.254Z,10.28
2023-04-14T22:50:47.060Z,10.22
2023-04-14T22:53:15.239Z,10.20
2023-04-14T22:55:44.302Z,10.23
2023-04-14T22:58:17.102Z,10.25
2023-04-14T23:00:46.335Z,10.15
2023-04-14T23:03:15.584Z,10.12
2023-04-14T23:05:44.816Z,10.09
2023-04-14T23:08:13.102Z,10.07
2023-04-14T23:10:41.369Z,10.06
2023-04-14T23:13:09.598Z,10.05
2023-04-14T23:15:39.287Z,9.97
2023-04-14T23:18:07.576Z,9.86
2023-04-14T23:20:36.959Z,9.82
2023-04-14T23:23:05.848Z,9.81
2023-04-14T23:25:34.171Z,9.80
2023-04-14T23:28:02.427Z,9.84
2023-04-14T23:30:30.806Z,9.83
2023-04-14T23:33:01.119Z,9.91
2023-04-14T23:35:29.621Z,9.90
2023-04-14T23:38:02.339Z,9.77
2023-04-14T23:40:31.862Z,9.81
2023-04-14T23:43:00.170Z,9.71
2023-04-14T23:45:28.761Z,9.70
2023-04-14T23:47:58.637Z,9.72
2023-04-14T23:51:00.690Z,9.75
2023-04-14T23:53:16.595Z,9.74
2023-04-14T23:55:44.912Z,9.61
2023-04-14T23:58:13.171Z,9.66
